Time;durP1;ratioP1;P1;durP2;ratioP2;P2;SDS_P1;SDS_P2;PMS_P1;PMS_P2;Temp;Humidity;BMP_temperature;BMP_pressure;BME280_temperature;BME280_humidity;BME280_pressure;Samples;Min_cycle;Max_cycle;Signal;HPM_P1;HPM_P2
2023/08/28 00:01:05;;;;;;;0.20;0.20;;;;;;;15.66;84.15;97091.94;5108123;28;20115;-67
2023/08/28 00:03:34;;;;;;;0.20;0.20;;;;;;;15.65;84.09;97094.84;5107420;28;20114;-67
2023/08/28 00:06:02;;;;;;;0.13;0.13;;;;;;;15.62;84.01;97096.16;5106284;28;20490;-67
2023/08/28 00:08:29;;;;;;;0.20;0.20;;;;;;;15.55;84.15;97094.66;5110374;28;20667;-68
2023/08/28 00:10:57;;;;;;;0.20;0.20;;;;;;;15.61;83.95;97091.81;5109701;28;20048;-67
2023/08/28 00:13:25;;;;;;;0.25;0.25;;;;;;;15.62;83.50;97096.16;5106921;28;20043;-66
2023/08/28 00:15:52;;;;;;;0.22;0.22;;;;;;;15.59;83.33;97093.94;5107405;28;20044;-67
2023/08/28 00:18:20;;;;;;;0.45;0.10;;;;;;;15.57;83.71;97089.88;5097649;28;20515;-67
2023/08/28 00:20:49;;;;;;;0.22;0.22;;;;;;;15.59;83.63;97101.19;5097859;28;20042;-67
2023/08/28 00:23:17;;;;;;;0.25;0.25;;;;;;;15.51;84.09;97093.44;5105098;28;20036;-67
2023/08/28 00:25:45;;;;;;;0.30;0.30;;;;;;;15.53;83.94;97089.47;5107621;28;20142;-67
2023/08/28 00:28:12;;;;;;;0.20;0.20;;;;;;;15.53;83.53;97089.47;5104962;28;20118;-67
2023/08/28 00:30:40;;;;;;;0.15;0.15;;;;;;;15.54;83.37;97085.78;5090642;28;20128;-67
2023/08/28 00:33:08;;;;;;;0.22;0.22;;;;;;;15.62;83.23;97080.00;5092350;28;20487;-67
2023/08/28 00:35:36;;;;;;;0.25;0.25;;;;;;;15.60;82.80;97078.59;5091489;28;20040;-67
2023/08/28 00:38:05;;;;;;;0.30;0.30;;;;;;;15.67;83.26;97079.31;5084438;28;20062;-67
2023/08/28 00:40:33;;;;;;;0.13;0.13;;;;;;;15.67;82.66;97076.59;5102927;28;20031;-69
2023/08/28 00:43:00;;;;;;;0.28;0.15;;;;;;;15.73;82.93;97075.63;5090501;28;20138;-66
2023/08/28 00:45:30;;;;;;;0.20;0.20;;;;;;;15.66;82.24;97073.09;5086851;28;20140;-66
2023/08/28 00:47:58;;;;;;;0.20;0.20;;;;;;;15.71;82.72;97062.41;5085975;28;20170;-66
2023/08/28 00:50:26;;;;;;;0.13;0.13;;;;;;;15.71;82.26;97073.19;5090814;28;20077;-66
2023/08/28 00:52:53;;;;;;;0.20;0.20;;;;;;;15.68;82.47;97073.66;5108238;28;20043;-66
2023/08/28 00:55:22;;;;;;;0.13;0.13;;;;;;;15.68;82.99;97068.28;5091458;28;20131;-69
2023/08/28 00:57:50;;;;;;;0.22;0.22;;;;;;;15.73;82.88;97063.00;5104868;28;20039;-67
2023/08/28 01:00:18;;;;;;;0.13;0.13;;;;;;;15.81;82.40;97051.03;5086184;28;20051;-66
2023/08/28 01:02:46;;;;;;;0.32;0.32;;;;;;;15.94;81.81;97060.69;5082714;28;20082;-66
2023/08/28 01:05:14;;;;;;;0.10;0.10;;;;;;;15.83;80.88;97059.69;5090093;28;20063;-66
2023/08/28 01:07:48;;;;;;;0.25;0.22;;;;;;;15.75;81.51;97066.28;5107326;28;20110;-68
2023/08/28 01:10:21;;;;;;;0.13;0.13;;;;;;;15.87;81.90;97060.03;5093907;28;20130;-66
2023/08/28 01:12:54;;;;;;;0.20;0.20;;;;;;;15.84;81.64;97052.44;5089530;28;20040;-67
2023/08/28 01:15:23;;;;;;;0.22;0.22;;;;;;;15.81;81.33;97056.41;5094210;28;20140;-66
2023/08/28 01:17:55;;;;;;;0.20;0.20;;;;;;;15.80;81.88;97046.69;5108400;28;20039;-67
2023/08/28 01:20:25;;;;;;;0.13;0.13;;;;;;;15.79;81.32;97040.50;5084414;28;20387;-67
2023/08/28 01:23:00;;;;;;;0.20;0.20;;;;;;;15.75;82.16;97028.59;5101805;28;20044;-66
2023/08/28 01:25:29;;;;;;;0.17;0.13;;;;;;;15.87;81.60;97033.94;5087811;28;20134;-66
2023/08/28 01:27:59;;;;;;;0.20;0.20;;;;;;;15.79;81.56;97032.41;5109002;28;20055;-67
2023/08/28 01:30:27;;;;;;;0.20;0.20;;;;;;;15.82;81.29;97024.94;5111730;28;20071;-69
2023/08/28 01:32:55;;;;;;;0.10;0.10;;;;;;;15.90;81.72;97021.84;5112541;28;20379;-69
2023/08/28 01:35:26;;;;;;;0.22;0.22;;;;;;;15.91;81.34;97016.22;5110410;28;20043;-69
2023/08/28 01:38:15;;;;;;;0.20;0.20;;;;;;;15.82;80.60;97016.84;5092027;28;20051;-69
2023/08/28 01:40:50;;;;;;;0.20;0.20;;;;;;;15.74;80.69;97028.84;5090412;28;20044;-70
2023/08/28 01:43:20;;;;;;;0.30;0.30;;;;;;;15.64;81.08;97018.72;5090975;28;20054;-69
2023/08/28 01:45:49;;;;;;;0.13;0.13;;;;;;;15.60;81.40;97024.78;5097017;28;20074;-69
2023/08/28 01:48:16;;;;;;;0.13;0.13;;;;;;;15.57;81.74;97023.44;5105593;28;20090;-69
2023/08/28 01:50:44;;;;;;;0.25;0.25;;;;;;;15.63;82.03;97035.09;5082228;28;20043;-70
2023/08/28 01:53:12;;;;;;;0.13;0.13;;;;;;;15.58;81.99;97051.13;5092836;28;20127;-69
2023/08/28 01:56:15;;;;;;;0.10;0.10;;;;;;;15.55;81.95;97055.13;5108953;28;20032;-69
2023/08/28 01:58:46;;;;;;;0.20;0.20;;;;;;;15.57;82.10;97074.53;5087283;28;20043;-69
2023/08/28 02:01:13;;;;;;;0.20;0.20;;;;;;;15.57;82.28;97081.78;5081166;28;20040;-69
2023/08/28 02:03:41;;;;;;;0.20;0.20;;;;;;;15.56;82.60;97093.59;5107193;28;20055;-69
2023/08/28 02:06:09;;;;;;;0.25;0.25;;;;;;;15.57;82.63;97095.25;5102814;28;20050;-69
2023/08/28 02:08:37;;;;;;;0.13;0.13;;;;;;;15.56;82.79;97093.59;5110897;28;20402;-69
2023/08/28 02:11:07;;;;;;;0.30;0.30;;;;;;;15.55;82.58;97098.16;5084994;28;20093;-69
2023/08/28 02:13:35;;;;;;;0.25;0.25;;;;;;;15.54;82.77;97088.47;5101179;28;20446;-68
2023/08/28 02:16:03;;;;;;;0.22;0.22;;;;;;;15.47;82.75;97086.94;5093851;28;20564;-68
2023/08/28 02:18:31;;;;;;;0.10;0.10;;;;;;;15.43;82.69;97082.03;5094172;28;20032;-68
2023/08/28 02:20:59;;;;;;;0.10;0.10;;;;;;;15.39;83.06;97070.09;5089729;28;20139;-68
2023/08/28 02:23:28;;;;;;;0.20;0.20;;;;;;;15.40;82.84;97071.72;5109287;28;20126;-68
2023/08/28 02:25:56;;;;;;;0.10;0.10;;;;;;;15.40;83.02;97069.03;5092540;28;20067;-68
2023/08/28 02:28:25;;;;;;;0.03;0.03;;;;;;;15.35;83.23;97078.88;5109818;28;20440;-68
2023/08/28 02:30:53;;;;;;;0.15;0.15;;;;;;;15.34;82.83;97075.38;5110717;28;20120;-68
2023/08/28 02:33:20;;;;;;;0.22;0.22;;;;;;;15.33;82.72;97076.44;5083696;28;20514;-68
2023/08/28 02:35:48;;;;;;;0.22;0.22;;;;;;;15.35;82.99;97086.97;5094028;28;20142;-68
2023/08/28 02:38:17;;;;;;;0.22;0.22;;;;;;;15.34;83.13;97096.91;5106664;28;20046;-69
2023/08/28 02:40:45;;;;;;;0.22;0.22;;;;;;;15.38;83.06;97100.72;5090785;28;20040;-68
2023/08/28 02:43:14;;;;;;;0.20;0.20;;;;;;;15.40;83.22;97114.75;5112903;28;20565;-68
2023/08/28 02:45:43;;;;;;;0.13;0.13;;;;;;;15.38;82.63;97126.81;5094100;28;20502;-68
2023/08/28 02:48:10;;;;;;;0.20;0.20;;;;;;;15.31;82.65;97131.50;5087810;28;20068;-68
2023/08/28 02:50:38;;;;;;;0.13;0.13;;;;;;;15.34;82.95;97131.03;5091386;28;20040;-68
2023/08/28 02:53:06;;;;;;;0.20;0.20;;;;;;;15.26;83.38;97134.09;5092258;28;20047;-69
2023/08/28 02:55:42;;;;;;;0.20;0.20;;;;;;;15.29;83.33;97134.41;5092586;28;20126;-69
2023/08/28 02:58:11;;;;;;;0.22;0.22;;;;;;;15.32;83.46;97139.34;5091864;28;20071;-68
2023/08/28 03:00:41;;;;;;;0.20;0.20;;;;;;;15.42;83.13;97136.88;5092088;28;20933;-68
2023/08/28 03:03:11;;;;;;;0.20;0.20;;;;;;;15.35;83.12;97132.69;5086362;28;20043;-68
2023/08/28 03:05:39;;;;;;;0.20;0.20;;;;;;;15.24;83.46;97128.13;5087876;28;20043;-68
2023/08/28 03:08:07;;;;;;;0.13;0.13;;;;;;;15.29;83.62;97120.16;5092304;28;20052;-68
2023/08/28 03:10:34;;;;;;;0.13;0.13;;;;;;;15.24;82.74;97120.06;5103913;28;20085;-68
2023/08/28 03:13:02;;;;;;;0.13;0.13;;;;;;;15.18;82.91;97110.22;5103932;28;20071;-69
2023/08/28 03:15:32;;;;;;;0.22;0.22;;;;;;;15.30;82.68;97098.41;5106818;28;20044;-69
2023/08/28 03:17:59;;;;;;;0.25;0.25;;;;;;;15.18;82.90;97104.84;5110016;28;20572;-69
2023/08/28 03:20:29;;;;;;;0.20;0.20;;;;;;;15.32;82.50;97090.94;5084088;28;20043;-69
2023/08/28 03:22:57;;;;;;;0.22;0.22;;;;;;;15.26;81.93;97081.09;5102253;28;20079;-69
2023/08/28 03:25:24;;;;;;;0.20;0.20;;;;;;;15.10;82.72;97075.66;5109670;28;20032;-69
2023/08/28 03:27:52;;;;;;;0.13;0.13;;;;;;;15.13;83.09;97078.69;5087269;28;20521;-69
2023/08/28 03:30:20;;;;;;;0.00;0.00;;;;;;;15.22;82.86;97077.28;5107804;28;20391;-69
2023/08/28 03:32:47;;;;;;;0.20;0.20;;;;;;;15.34;82.55;97071.88;5109244;28;20056;-70
2023/08/28 03:35:15;;;;;;;0.22;0.22;;;;;;;15.29;82.71;97074.44;5090420;28;20039;-69
2023/08/28 03:37:44;;;;;;;0.30;0.30;;;;;;;15.24;82.52;97077.03;5110898;28;20035;-69
2023/08/28 03:40:13;;;;;;;0.20;0.20;;;;;;;15.20;82.85;97075.88;5093290;28;20088;-69
2023/08/28 03:42:41;;;;;;;0.13;0.13;;;;;;;15.21;83.51;97061.38;5091566;28;20047;-69
2023/08/28 03:45:09;;;;;;;0.10;0.10;;;;;;;15.29;83.06;97067.19;5106825;28;20556;-68
2023/08/28 03:47:37;;;;;;;0.13;0.13;;;;;;;15.33;83.00;97067.56;5103287;28;20574;-68
2023/08/28 03:50:05;;;;;;;0.30;0.13;;;;;;;15.34;83.10;97067.31;5081070;28;20071;-69
2023/08/28 03:52:33;;;;;;;0.20;0.20;;;;;;;15.36;83.22;97064.41;5089261;28;20445;-68
2023/08/28 03:55:03;;;;;;;0.17;0.17;;;;;;;15.41;83.05;97073.38;5082239;28;20086;-69
2023/08/28 03:57:34;;;;;;;0.25;0.25;;;;;;;15.41;82.63;97064.47;5088098;28;20086;-69
2023/08/28 04:00:05;;;;;;;0.13;0.13;;;;;;;15.42;82.90;97066.13;5102707;28;20062;-69
2023/08/28 04:02:41;;;;;;;0.30;0.30;;;;;;;15.40;82.61;97070.91;5104845;28;20035;-68
2023/08/28 04:05:09;;;;;;;0.20;0.20;;;;;;;15.41;82.71;97073.38;5101279;28;20048;-68
2023/08/28 04:07:37;;;;;;;0.20;0.20;;;;;;;15.32;82.96;97074.81;5089494;28;20528;-68
2023/08/28 04:10:07;;;;;;;0.15;0.15;;;;;;;15.37;82.78;97082.13;5091791;28;20244;-69
2023/08/28 04:12:35;;;;;;;0.30;0.30;;;;;;;15.40;82.92;97073.59;5093474;28;20044;-69
2023/08/28 04:15:03;;;;;;;0.20;0.20;;;;;;;15.46;82.43;97075.34;5105780;28;20457;-68
2023/08/28 04:17:31;;;;;;;0.22;0.22;;;;;;;15.54;82.61;97063.41;5085647;28;20051;-68
2023/08/28 04:20:09;;;;;;;0.20;0.20;;;;;;;15.57;81.54;97062.97;5083208;28;20587;-68
2023/08/28 04:22:37;;;;;;;0.13;0.13;;;;;;;15.56;81.23;97059.44;5085855;28;20035;-68
2023/08/28 04:25:08;;;;;;;0.20;0.20;;;;;;;15.56;80.99;97069.41;5083463;28;20048;-68
2023/08/28 04:27:37;;;;;;;0.10;0.10;;;;;;;15.57;81.37;97079.91;5108702;28;20044;-68
2023/08/28 04:30:06;;;;;;;0.10;0.10;;;;;;;15.47;81.22;97076.19;5092075;28;20051;-69
2023/08/28 04:32:35;;;;;;;0.13;0.13;;;;;;;15.43;79.31;97065.88;5091777;28;20039;-68
2023/08/28 04:35:05;;;;;;;0.15;0.15;;;;;;;15.46;78.62;97063.78;5104766;28;20044;-69
2023/08/28 04:37:33;;;;;;;0.13;0.13;;;;;;;15.49;78.13;97069.47;5085083;28;20138;-68
2023/08/28 04:40:01;;;;;;;0.20;0.20;;;;;;;15.50;77.44;97073.00;5092428;28;20112;-68
2023/08/28 04:42:31;;;;;;;0.20;0.20;;;;;;;15.55;77.86;97075.81;5094156;28;20517;-69
2023/08/28 04:44:59;;;;;;;0.40;0.40;;;;;;;15.54;77.55;97077.69;5093986;28;20058;-68
2023/08/28 04:47:27;;;;;;;0.15;0.15;;;;;;;15.52;76.97;97092.41;5094095;28;20130;-68
2023/08/28 04:49:55;;;;;;;0.10;0.10;;;;;;;15.50;77.04;97089.13;5090165;28;20384;-69
2023/08/28 04:52:23;;;;;;;0.17;0.17;;;;;;;15.50;77.40;97091.81;5096647;28;20032;-69
2023/08/28 04:54:50;;;;;;;0.13;0.13;;;;;;;15.48;77.90;97093.91;5097694;28;20142;-69
2023/08/28 04:57:19;;;;;;;0.10;0.10;;;;;;;15.34;77.98;97106.84;5092192;28;20097;-69
2023/08/28 04:59:48;;;;;;;0.08;0.08;;;;;;;15.40;78.65;97120.16;5097229;28;20048;-69
2023/08/28 05:02:18;;;;;;;0.13;0.13;;;;;;;15.43;78.25;97127.75;5090000;28;20043;-69
2023/08/28 05:04:45;;;;;;;0.20;0.20;;;;;;;15.46;77.54;97128.34;5116122;28;20040;-68
2023/08/28 05:07:13;;;;;;;0.13;0.13;;;;;;;15.39;76.12;97131.13;5106981;28;20051;-69
2023/08/28 05:09:41;;;;;;;0.10;0.10;;;;;;;15.33;76.57;97140.16;5095480;28;20553;-68
2023/08/28 05:12:09;;;;;;;0.10;0.10;;;;;;;15.31;76.45;97136.88;5096190;28;20138;-68
2023/08/28 05:14:37;;;;;;;0.13;0.13;;;;;;;15.33;76.63;97149.03;5092931;28;20088;-69
2023/08/28 05:17:07;;;;;;;0.30;0.30;;;;;;;15.33;76.25;97140.16;5114287;28;20043;-69
2023/08/28 05:19:36;;;;;;;0.10;0.10;;;;;;;15.29;76.35;97138.97;5085366;28;20394;-68
2023/08/28 05:22:04;;;;;;;0.20;0.20;;;;;;;15.26;75.85;97131.41;5113301;28;20134;-68
2023/08/28 05:24:32;;;;;;;0.05;0.05;;;;;;;15.27;75.84;97130.31;5110937;28;20036;-69
2023/08/28 05:27:00;;;;;;;0.20;0.20;;;;;;;15.17;75.96;97130.91;5111087;28;20052;-69
2023/08/28 05:29:28;;;;;;;0.10;0.10;;;;;;;15.16;76.55;97129.28;5094509;28;20475;-68
2023/08/28 05:31:55;;;;;;;0.20;0.20;;;;;;;15.07;76.33;97128.81;5090854;28;20044;-69
2023/08/28 05:34:24;;;;;;;0.13;0.13;;;;;;;15.17;76.39;97124.72;5085933;28;20130;-68
2023/08/28 05:36:52;;;;;;;0.15;0.15;;;;;;;15.22;75.90;97120.28;5111638;28;20469;-69
2023/08/28 05:39:20;;;;;;;0.20;0.20;;;;;;;15.25;75.49;97119.00;5091814;28;20047;-69
2023/08/28 05:41:47;;;;;;;0.17;0.17;;;;;;;15.23;76.00;97121.94;5088802;28;20054;-69
2023/08/28 05:44:15;;;;;;;0.20;0.20;;;;;;;15.25;75.97;97116.31;5089898;28;20036;-69
2023/08/28 05:46:43;;;;;;;0.25;0.25;;;;;;;15.25;75.27;97111.75;5108779;28;20115;-69
2023/08/28 05:49:12;;;;;;;0.22;0.22;;;;;;;15.25;75.58;97111.75;5104654;28;20032;-69
2023/08/28 05:51:41;;;;;;;0.30;0.28;;;;;;;15.27;75.53;97117.69;5083694;28;20129;-69
2023/08/28 05:54:09;;;;;;;0.20;0.20;;;;;;;15.35;75.87;97119.22;5089874;28;20032;-69
2023/08/28 05:56:37;;;;;;;0.30;0.30;;;;;;;15.38;74.42;97121.44;5084470;28;20440;-69
2023/08/28 05:59:05;;;;;;;0.30;0.30;;;;;;;15.36;74.15;97128.94;5092194;28;20055;-69
2023/08/28 06:01:33;;;;;;;0.25;0.25;;;;;;;15.42;74.36;97127.97;5087685;28;20514;-69
2023/08/28 06:04:00;;;;;;;0.15;0.15;;;;;;;15.43;74.20;97124.25;5093463;28;20492;-69
2023/08/28 06:06:29;;;;;;;0.10;0.10;;;;;;;15.47;74.17;97127.28;5090803;28;20037;-69
2023/08/28 06:09:03;;;;;;;0.22;0.22;;;;;;;15.41;74.52;97131.72;5092877;28;20403;-69
2023/08/28 06:11:31;;;;;;;0.10;0.10;;;;;;;15.39;73.91;97128.44;5088716;28;20130;-69
2023/08/28 06:13:59;;;;;;;0.10;0.10;;;;;;;15.47;74.51;97136.13;5091545;28;20134;-69
2023/08/28 06:16:27;;;;;;;0.20;0.20;;;;;;;15.41;74.03;97134.41;5108285;28;20040;-69
2023/08/28 06:18:55;;;;;;;0.13;0.13;;;;;;;15.43;74.06;97132.31;5089551;28;20375;-69
2023/08/28 06:21:24;;;;;;;0.03;0.03;;;;;;;15.41;74.10;97134.41;5099172;28;20111;-69
2023/08/28 06:23:52;;;;;;;0.38;0.38;;;;;;;15.44;73.35;97142.00;5113064;28;20068;-69
2023/08/28 06:26:21;;;;;;;0.13;0.13;;;;;;;15.39;73.20;97139.19;5093080;28;20068;-69
2023/08/28 06:28:49;;;;;;;0.22;0.22;;;;;;;15.43;73.31;97129.63;5109536;28;20499;-68
2023/08/28 06:31:16;;;;;;;0.13;0.13;;;;;;;15.43;72.91;97126.94;5085169;28;20044;-67
2023/08/28 06:33:44;;;;;;;0.13;0.13;;;;;;;15.43;72.40;97116.16;5100085;28;20050;-68
2023/08/28 06:36:12;;;;;;;0.10;0.10;;;;;;;15.41;72.34;97116.41;5097006;28;20050;-67
2023/08/28 06:38:40;;;;;;;0.25;0.25;;;;;;;15.44;72.07;97120.50;5103935;28;20450;-68
2023/08/28 06:41:07;;;;;;;0.22;0.22;;;;;;;15.42;72.34;97127.97;5109586;28;20512;-67
2023/08/28 06:43:36;;;;;;;0.15;0.15;;;;;;;15.45;72.08;97121.31;5112675;28;20054;-68
2023/08/28 06:46:04;;;;;;;0.22;0.22;;;;;;;15.47;71.81;97119.22;5100163;28;20118;-67
2023/08/28 06:48:32;;;;;;;0.20;0.20;;;;;;;15.48;71.57;97116.25;5092486;28;20044;-68
2023/08/28 06:50:59;;;;;;;0.30;0.30;;;;;;;15.46;71.11;97115.69;5104496;28;20059;-69
2023/08/28 06:53:27;;;;;;;0.13;0.13;;;;;;;15.46;71.41;97113.00;5106553;28;20058;-67
2023/08/28 06:55:55;;;;;;;0.20;0.20;;;;;;;15.46;70.99;97112.19;5105262;28;20131;-68
2023/08/28 06:58:22;;;;;;;0.10;0.10;;;;;;;15.45;70.72;97095.25;5111033;28;20468;-68
2023/08/28 07:00:51;;;;;;;0.10;0.10;;;;;;;15.45;70.50;97094.41;5108039;28;20040;-68
2023/08/28 07:03:19;;;;;;;0.10;0.10;;;;;;;15.44;70.60;97090.91;5110787;28;20043;-68
2023/08/28 07:05:47;;;;;;;0.22;0.22;;;;;;;15.42;70.43;97090.31;5106835;28;20119;-68
2023/08/28 07:08:15;;;;;;;0.13;0.13;;;;;;;15.43;70.55;97089.28;5107238;28;20080;-68
2023/08/28 07:10:43;;;;;;;0.13;0.13;;;;;;;15.33;70.25;97081.00;5106119;28;20051;-67
2023/08/28 07:13:11;;;;;;;0.20;0.20;;;;;;;15.33;70.54;97075.63;5108121;28;20043;-68
2023/08/28 07:15:55;;;;;;;0.15;0.15;;;;;;;15.36;70.02;97077.84;5110595;28;20040;-68
2023/08/28 07:18:22;;;;;;;0.13;0.13;;;;;;;15.35;69.63;97068.13;5105657;28;20509;-68
2023/08/28 07:20:50;;;;;;;0.13;0.13;;;;;;;15.40;69.79;97078.97;5112564;28;20050;-68
2023/08/28 07:23:18;;;;;;;0.25;0.25;;;;;;;15.15;68.57;97078.47;5106861;28;20043;-67
2023/08/28 07:25:46;;;;;;;0.22;0.22;;;;;;;15.22;69.61;97079.16;5112165;28;20482;-69
2023/08/28 07:28:13;;;;;;;0.25;0.25;;;;;;;15.28;69.55;97067.44;5105139;28;20067;-67
2023/08/28 07:30:42;;;;;;;0.13;0.13;;;;;;;15.31;69.83;97061.59;5129483;22;20127;-73
2023/08/28 07:33:12;;;;;;;0.13;0.13;;;;;;;15.38;69.60;97060.38;5102765;28;20040;-72
2023/08/28 07:35:43;;;;;;;0.22;0.22;;;;;;;15.45;69.81;97056.75;5111262;28;20042;-72
2023/08/28 07:38:12;;;;;;;0.20;0.20;;;;;;;15.45;69.89;97056.75;5103958;28;20126;-72
2023/08/28 07:40:39;;;;;;;0.20;0.20;;;;;;;15.52;70.16;97052.06;5104264;28;20054;-72
2023/08/28 07:43:07;;;;;;;0.22;0.22;;;;;;;15.56;69.87;97048.69;5107913;28;20048;-72
2023/08/28 07:45:35;;;;;;;0.20;0.20;;;;;;;15.59;69.97;97050.06;5090014;28;20127;-75
2023/08/28 07:48:03;;;;;;;0.13;0.13;;;;;;;15.63;69.58;97038.59;5100404;28;20541;-74
2023/08/28 07:50:32;;;;;;;0.13;0.13;;;;;;;15.63;69.28;97032.41;5100441;28;20047;-73
2023/08/28 07:53:00;;;;;;;0.20;0.20;;;;;;;15.61;70.17;97029.94;5099970;28;20119;-74
2023/08/28 07:55:28;;;;;;;0.13;0.13;;;;;;;15.61;68.87;97029.94;5106547;28;20048;-74
2023/08/28 07:57:56;;;;;;;0.10;0.10;;;;;;;15.68;69.21;97029.78;5100007;28;20040;-76
2023/08/28 08:00:24;;;;;;;0.13;0.13;;;;;;;15.69;68.59;97047.56;5107225;28;20591;-74
2023/08/28 08:02:52;;;;;;;0.13;0.13;;;;;;;15.71;67.96;97043.59;5100360;28;20050;-74
2023/08/28 08:05:20;;;;;;;0.22;0.22;;;;;;;15.61;68.49;97048.78;5098688;28;20071;-74
2023/08/28 08:07:49;;;;;;;0.15;0.15;;;;;;;15.67;68.53;97033.56;5094887;28;20453;-73
2023/08/28 08:10:17;;;;;;;0.13;0.13;;;;;;;15.71;67.71;97038.19;5101751;28;20122;-73
2023/08/28 08:12:45;;;;;;;0.20;0.20;;;;;;;15.74;66.82;97029.66;5103770;28;20040;-73
2023/08/28 08:15:13;;;;;;;0.15;0.15;;;;;;;15.79;67.00;97035.13;5101769;28;20071;-73
2023/08/28 08:17:41;;;;;;;0.22;0.22;;;;;;;15.84;66.30;97033.59;5104876;28;20119;-73
2023/08/28 08:20:13;;;;;;;0.10;0.10;;;;;;;15.82;65.76;97051.84;5093524;28;20380;-73
2023/08/28 08:22:42;;;;;;;0.13;0.13;;;;;;;15.84;66.29;97065.88;5103923;28;20078;-73
2023/08/28 08:25:11;;;;;;;0.20;0.20;;;;;;;15.85;65.97;97059.44;5102153;28;20058;-72
2023/08/28 08:27:39;;;;;;;0.03;0.03;;;;;;;15.72;65.02;97053.28;5103127;28;20126;-73
2023/08/28 08:30:09;;;;;;;0.22;0.22;;;;;;;15.83;65.54;97064.25;5102358;28;20035;-73
2023/08/28 08:32:36;;;;;;;0.13;0.13;;;;;;;15.85;65.54;97065.66;5103274;28;20440;-73
2023/08/28 08:35:05;;;;;;;0.15;0.15;;;;;;;15.94;66.21;97068.75;5102668;28;20075;-72
2023/08/28 08:37:33;;;;;;;0.15;0.15;;;;;;;15.94;65.95;97066.06;5095908;28;20040;-72
2023/08/28 08:40:03;;;;;;;0.30;0.30;;;;;;;16.01;65.77;97082.88;5102792;28;20051;-72
2023/08/28 08:42:33;;;;;;;0.17;0.17;;;;;;;16.01;65.12;97078.31;5103092;28;20035;-73
2023/08/28 08:45:01;;;;;;;0.20;0.20;;;;;;;16.06;65.49;97082.97;5102857;28;20039;-73
2023/08/28 08:47:29;;;;;;;0.13;0.13;;;;;;;16.08;65.57;97094.34;5103856;28;20071;-72
2023/08/28 08:50:00;;;;;;;0.20;0.20;;;;;;;16.08;65.15;97105.94;5094113;28;20068;-72
2023/08/28 08:52:28;;;;;;;0.30;0.30;;;;;;;16.07;65.44;97103.47;5084013;28;20465;-73
2023/08/28 08:55:01;;;;;;;0.22;0.22;;;;;;;16.02;65.37;97100.66;5098193;28;20040;-72
2023/08/28 08:57:35;;;;;;;0.13;0.13;;;;;;;16.01;65.53;97099.03;5096597;28;20487;-72
2023/08/28 09:00:07;;;;;;;0.20;0.20;;;;;;;16.05;65.71;97105.56;5104180;28;20050;-73
2023/08/28 09:02:35;;;;;;;;;;;;;;;16.03;65.51;97103.13;5100057;28;20070;-73
2023/08/28 09:05:03;;;;;;;0.20;0.20;;;;;;;16.04;65.62;97098.56;5097621;28;20306;-72
2023/08/28 09:07:31;;;;;;;0.13;0.13;;;;;;;16.02;65.67;97106.06;5094155;28;20036;-72
2023/08/28 09:09:59;;;;;;;0.03;0.03;;;;;;;16.01;64.97;97093.66;5098694;28;20126;-73
2023/08/28 09:12:26;;;;;;;0.13;0.13;;;;;;;15.92;64.68;97095.91;5092773;28;20043;-72
2023/08/28 09:14:56;;;;;;;0.22;0.22;;;;;;;15.91;64.60;97098.84;5094798;28;20044;-72
2023/08/28 09:17:25;;;;;;;0.43;0.43;;;;;;;15.91;64.78;97093.47;5106678;28;20036;-72
2023/08/28 09:19:53;;;;;;;0.15;0.15;;;;;;;15.89;64.39;97093.69;5089860;28;20043;-72
2023/08/28 09:22:22;;;;;;;0.20;0.20;;;;;;;15.87;64.96;97078.88;5101940;28;20059;-72
2023/08/28 09:24:51;;;;;;;0.30;0.30;;;;;;;15.78;65.29;97083.78;5093978;28;20058;-72
2023/08/28 09:27:19;;;;;;;0.10;0.10;;;;;;;15.75;65.66;97071.66;5092369;28;20127;-72
2023/08/28 09:29:47;;;;;;;0.32;0.32;;;;;;;15.84;65.88;97074.78;5102978;28;20127;-73
2023/08/28 09:32:28;;;;;;;0.25;0.25;;;;;;;15.76;64.93;97067.09;5105756;28;20730;-73
2023/08/28 09:34:56;;;;;;;0.13;0.13;;;;;;;15.78;64.38;97060.38;5087558;28;20490;-72
2023/08/28 09:37:23;;;;;;;0.20;0.15;;;;;;;15.81;64.62;97053.72;5103802;28;20039;-72
2023/08/28 09:39:55;;;;;;;0.13;0.13;;;;;;;15.86;64.64;97055.69;5105248;28;20122;-73
2023/08/28 09:42:24;;;;;;;0.13;0.13;;;;;;;15.87;64.56;97050.06;5105316;28;20074;-72
2023/08/28 09:44:52;;;;;;;0.20;0.20;;;;;;;15.90;64.57;97051.44;5092033;28;20046;-73
2023/08/28 09:47:22;;;;;;;0.30;0.30;;;;;;;15.92;64.86;97047.47;5090190;28;20352;-72
2023/08/28 09:49:50;;;;;;;0.20;0.20;;;;;;;15.91;64.64;97045.00;5101682;28;20422;-72
2023/08/28 09:52:24;;;;;;;0.15;0.15;;;;;;;15.85;65.00;97044.13;5093017;28;20055;-73
2023/08/28 09:55:01;;;;;;;0.10;0.10;;;;;;;15.51;66.14;97039.66;5108112;28;20406;-72
2023/08/28 09:57:28;;;;;;;0.13;0.13;;;;;;;15.51;66.69;97037.78;5098561;28;20047;-73
2023/08/28 09:59:56;;;;;;;0.17;0.17;;;;;;;15.56;66.90;97043.31;5109357;28;20040;-73
2023/08/28 10:02:27;;;;;;;0.20;0.20;;;;;;;15.69;66.80;97042.19;5101710;28;20511;-72
2023/08/28 10:04:57;;;;;;;0.10;0.10;;;;;;;15.72;66.62;97047.91;5109533;28;20078;-72
2023/08/28 10:07:25;;;;;;;0.20;0.20;;;;;;;15.75;66.69;97052.00;5107490;28;20210;-73
2023/08/28 10:09:54;;;;;;;0.22;0.22;;;;;;;15.79;66.13;97063.91;5101655;28;20050;-73
2023/08/28 10:12:22;;;;;;;0.20;0.20;;;;;;;15.76;65.87;97067.91;5108864;28;20119;-72
2023/08/28 10:14:50;;;;;;;0.22;0.22;;;;;;;15.64;65.80;97075.22;5086134;28;20363;-73
2023/08/28 10:17:18;;;;;;;0.13;0.13;;;;;;;15.73;65.98;97081.03;5094134;28;20486;-72
2023/08/28 10:19:52;;;;;;;0.10;0.10;;;;;;;15.64;66.10;97083.28;5090851;28;20047;-72
2023/08/28 10:22:20;;;;;;;0.22;0.22;;;;;;;15.71;65.89;97089.31;5088826;28;20035;-73
2023/08/28 10:24:49;;;;;;;0.13;0.13;;;;;;;15.76;65.96;97092.13;5100530;28;20044;-72
2023/08/28 10:27:18;;;;;;;0.20;0.20;;;;;;;15.81;65.91;97099.47;5104187;28;20127;-73
2023/08/28 10:29:46;;;;;;;0.20;0.20;;;;;;;15.79;65.58;97101.56;5093142;28;20064;-73
2023/08/28 10:32:14;;;;;;;0.00;0.00;;;;;;;15.74;65.80;97114.94;5084050;28;20387;-73
2023/08/28 10:34:43;;;;;;;0.30;0.30;;;;;;;15.71;66.61;97116.22;5105315;28;20413;-72
2023/08/28 10:37:13;;;;;;;0.13;0.13;;;;;;;15.73;66.71;97119.50;5103133;28;20037;-72
2023/08/28 10:39:57;;;;;;;0.15;0.15;;;;;;;15.77;67.60;97127.94;5103779;28;20058;-72
2023/08/28 10:42:26;;;;;;;0.40;0.40;;;;;;;15.75;68.05;97133.56;5102343;28;20047;-72
2023/08/28 10:44:55;;;;;;;0.05;0.05;;;;;;;15.74;66.72;97133.78;5078588;28;20094;-72
2023/08/28 10:47:24;;;;;;;0.03;0.03;;;;;;;15.69;67.74;97133.66;5094741;28;20044;-72
2023/08/28 10:49:54;;;;;;;0.10;0.10;;;;;;;15.70;68.87;97128.06;5104391;28;20606;-72
2023/08/28 10:52:23;;;;;;;0.20;0.20;;;;;;;15.52;68.78;97130.06;5101894;28;20111;-72
2023/08/28 10:54:51;;;;;;;0.22;0.22;;;;;;;15.50;68.58;97121.41;5089252;28;20040;-72
2023/08/28 10:57:23;;;;;;;0.10;0.10;;;;;;;15.61;69.40;97120.59;5102562;28;20127;-72
2023/08/28 10:59:51;;;;;;;;;;;;;;;15.61;69.69;97110.66;5108626;28;20477;-72
2023/08/28 11:02:19;;;;;;;0.10;0.10;;;;;;;15.57;69.39;97100.63;5104298;28;20593;-72
2023/08/28 11:04:48;;;;;;;0.10;0.10;;;;;;;15.41;69.34;97104.81;5090085;28;20398;-72
2023/08/28 11:07:45;;;;;;;0.10;0.10;;;;;;;15.37;71.30;97106.34;5102755;28;20043;-72
2023/08/28 11:10:17;;;;;;;0.10;0.10;;;;;;;15.46;71.25;97088.81;5102043;28;20050;-72
2023/08/28 11:12:53;;;;;;;0.13;0.13;;;;;;;15.52;72.85;97077.09;5105265;28;20507;-72
2023/08/28 11:15:29;;;;;;;0.22;0.22;;;;;;;15.55;72.35;97071.25;5104777;28;20044;-72
2023/08/28 11:18:29;;;;;;;0.20;0.20;;;;;;;15.55;72.62;97063.19;5105175;28;20521;-72
2023/08/28 11:20:58;;;;;;;0.20;0.20;;;;;;;15.57;74.32;97065.66;5005861;28;20083;-72
2023/08/28 11:23:33;;;;;;;0.15;0.15;;;;;;;15.54;71.45;97061.56;5009283;28;20099;-72
2023/08/28 11:26:05;;;;;;;0.20;0.20;;;;;;;15.56;73.07;97047.88;5058744;28;20043;-72
2023/08/28 11:28:44;;;;;;;0.03;0.03;;;;;;;15.67;73.80;97029.00;5081605;28;20403;-72
2023/08/28 11:31:13;;;;;;;0.10;0.10;;;;;;;15.74;74.00;97028.84;5108979;28;20035;-71
2023/08/28 11:33:41;;;;;;;0.13;0.13;;;;;;;15.77;74.06;97021.09;5103385;28;20039;-71
2023/08/28 11:36:10;;;;;;;0.10;0.10;;;;;;;15.86;74.08;97028.78;5086144;28;20340;-72
2023/08/28 11:38:41;;;;;;;0.15;0.15;;;;;;;15.86;73.56;97021.53;5112067;28;20047;-71
2023/08/28 11:41:10;;;;;;;0.08;0.08;;;;;;;15.75;72.96;97014.31;5103722;28;20028;-72
2023/08/28 11:43:39;;;;;;;0.22;0.22;;;;;;;15.70;72.30;97001.59;5107369;28;20414;-72